sensor_id;sensor_type;location;lat;lon;timestamp;pressure;altitude;pressure_sealevel;temperature;humidity
55685;BME280;41883;49.544;8.646;2023-04-27T00:01:56;100684.41;;;6.26;nan
55685;BME280;41883;49.544;8.646;2023-04-27T00:04:21;100679.75;;;6.18;nan
55685;BME280;41883;49.544;8.646;2023-04-27T00:06:46;100679.84;;;6.05;nan
55685;BME280;41883;49.544;8.646;2023-04-27T00:09:12;100688.22;;;5.99;nan
55685;BME280;41883;49.544;8.646;2023-04-27T00:11:37;100681.75;;;5.92;nan
55685;BME280;41883;49.544;8.646;2023-04-27T00:14:02;100669.44;;;5.92;nan
55685;BME280;41883;49.544;8.646;2023-04-27T00:16:27;100683.22;;;5.96;nan
55685;BME280;41883;49.544;8.646;2023-04-27T00:18:52;100680.00;;;6.15;nan
55685;BME280;41883;49.544;8.646;2023-04-27T00:21:18;100680.69;;;6.17;nan
55685;BME280;41883;49.544;8.646;2023-04-27T00:23:43;100673.69;;;6.18;nan
55685;BME280;41883;49.544;8.646;2023-04-27T00:26:08;100667.22;;;6.10;nan
55685;BME280;41883;49.544;8.646;2023-04-27T00:28:33;100672.69;;;6.07;nan
55685;BME280;41883;49.544;8.646;2023-04-27T00:30:59;100680.00;;;6.04;nan
55685;BME280;41883;49.544;8.646;2023-04-27T00:33:27;100665.19;;;6.03;nan
55685;BME280;41883;49.544;8.646;2023-04-27T00:35:52;100677.94;;;6.07;nan
55685;BME280;41883;49.544;8.646;2023-04-27T00:38:17;100672.94;;;6.04;nan
55685;BME280;41883;49.544;8.646;2023-04-27T00:40:43;100671.28;;;6.03;nan
55685;BME280;41883;49.544;8.646;2023-04-27T00:43:08;100664.34;;;6.02;nan
55685;BME280;41883;49.544;8.646;2023-04-27T00:45:36;100667.47;;;5.96;nan
55685;BME280;41883;49.544;8.646;2023-04-27T00:48:03;100666.34;;;5.87;nan
55685;BME280;41883;49.544;8.646;2023-04-27T00:50:29;100660.47;;;5.84;nan
55685;BME280;41883;49.544;8.646;2023-04-27T00:52:54;100659.06;;;5.80;nan
55685;BME280;41883;49.544;8.646;2023-04-27T00:55:20;100663.34;;;5.81;nan
55685;BME280;41883;49.544;8.646;2023-04-27T00:57:46;100660.28;;;5.87;nan
55685;BME280;41883;49.544;8.646;2023-04-27T01:00:11;100669.44;;;5.92;nan
55685;BME280;41883;49.544;8.646;2023-04-27T01:02:37;100664.31;;;5.91;nan
55685;BME280;41883;49.544;8.646;2023-04-27T01:05:02;100671.50;;;5.89;nan
55685;BME280;41883;49.544;8.646;2023-04-27T01:07:27;100673.03;;;5.91;nan
55685;BME280;41883;49.544;8.646;2023-04-27T01:09:53;100670.91;;;5.97;nan
55685;BME280;41883;49.544;8.646;2023-04-27T01:12:18;100676.28;;;5.95;nan
55685;BME280;41883;49.544;8.646;2023-04-27T01:14:43;100676.75;;;6.00;nan
55685;BME280;41883;49.544;8.646;2023-04-27T01:17:08;100682.38;;;6.07;nan
55685;BME280;41883;49.544;8.646;2023-04-27T01:19:33;100673.56;;;6.08;nan
55685;BME280;41883;49.544;8.646;2023-04-27T01:22:00;100683.91;;;6.09;nan
55685;BME280;41883;49.544;8.646;2023-04-27T01:24:25;100684.88;;;6.08;nan
55685;BME280;41883;49.544;8.646;2023-04-27T01:26:50;100674.84;;;6.02;nan
55685;BME280;41883;49.544;8.646;2023-04-27T01:29:17;100678.31;;;6.03;nan
55685;BME280;41883;49.544;8.646;2023-04-27T01:31:43;100663.53;;;6.02;nan
55685;BME280;41883;49.544;8.646;2023-04-27T01:34:08;100674.03;;;6.02;nan
55685;BME280;41883;49.544;8.646;2023-04-27T01:36:33;100675.81;;;6.01;nan
55685;BME280;41883;49.544;8.646;2023-04-27T01:38:59;100676.75;;;6.00;nan
55685;BME280;41883;49.544;8.646;2023-04-27T01:41:24;100668.28;;;5.97;nan
55685;BME280;41883;49.544;8.646;2023-04-27T01:43:50;100673.53;;;5.97;nan
55685;BME280;41883;49.544;8.646;2023-04-27T01:46:15;100681.28;;;5.98;nan
55685;BME280;41883;49.544;8.646;2023-04-27T01:48:40;100675.09;;;5.99;nan
55685;BME280;41883;49.544;8.646;2023-04-27T01:51:05;100681.41;;;5.97;nan
55685;BME280;41883;49.544;8.646;2023-04-27T01:53:31;100682.50;;;5.94;nan
55685;BME280;41883;49.544;8.646;2023-04-27T01:55:56;100678.28;;;5.91;nan
55685;BME280;41883;49.544;8.646;2023-04-27T01:58:23;100673.97;;;5.90;nan
55685;BME280;41883;49.544;8.646;2023-04-27T02:00:49;100674.69;;;5.92;nan
55685;BME280;41883;49.544;8.646;2023-04-27T02:03:14;100676.28;;;5.95;nan
55685;BME280;41883;49.544;8.646;2023-04-27T02:05:39;100680.78;;;5.93;nan
55685;BME280;41883;49.544;8.646;2023-04-27T02:08:05;100684.03;;;5.97;nan
55685;BME280;41883;49.544;8.646;2023-04-27T02:10:31;100682.00;;;6.00;nan
55685;BME280;41883;49.544;8.646;2023-04-27T02:12:56;100682.00;;;6.00;nan
55685;BME280;41883;49.544;8.646;2023-04-27T02:15:21;100682.97;;;5.99;nan
55685;BME280;41883;49.544;8.646;2023-04-27T02:17:46;100682.25;;;5.97;nan
55685;BME280;41883;49.544;8.646;2023-04-27T02:20:12;100683.81;;;6.00;nan
55685;BME280;41883;49.544;8.646;2023-04-27T02:22:43;100683.00;;;6.10;nan
55685;BME280;41883;49.544;8.646;2023-04-27T02:25:09;100679.63;;;6.08;nan
55685;BME280;41883;49.544;8.646;2023-04-27T02:27:38;100686.31;;;6.01;nan
55685;BME280;41883;49.544;8.646;2023-04-27T02:30:04;100688.06;;;5.89;nan
55685;BME280;41883;49.544;8.646;2023-04-27T02:32:29;100683.63;;;5.79;nan
55685;BME280;41883;49.544;8.646;2023-04-27T02:34:55;100690.53;;;5.68;nan
55685;BME280;41883;49.544;8.646;2023-04-27T02:37:20;100690.97;;;5.62;nan
55685;BME280;41883;49.544;8.646;2023-04-27T02:39:45;100693.75;;;5.61;nan
55685;BME280;41883;49.544;8.646;2023-04-27T02:42:11;100699.19;;;5.58;nan
55685;BME280;41883;49.544;8.646;2023-04-27T02:44:36;100697.44;;;5.58;nan
55685;BME280;41883;49.544;8.646;2023-04-27T02:47:01;100699.56;;;5.64;nan
55685;BME280;41883;49.544;8.646;2023-04-27T02:49:27;100697.31;;;5.71;nan
55685;BME280;41883;49.544;8.646;2023-04-27T02:51:52;100701.41;;;5.75;nan
55685;BME280;41883;49.544;8.646;2023-04-27T02:54:17;100695.66;;;5.81;nan
55685;BME280;41883;49.544;8.646;2023-04-27T02:56:42;100705.72;;;5.87;nan
55685;BME280;41883;49.544;8.646;2023-04-27T02:59:08;100698.28;;;5.81;nan
55685;BME280;41883;49.544;8.646;2023-04-27T03:01:33;100700.09;;;5.81;nan
55685;BME280;41883;49.544;8.646;2023-04-27T03:03:58;100697.84;;;5.87;nan
55685;BME280;41883;49.544;8.646;2023-04-27T03:06:23;100700.13;;;5.92;nan
55685;BME280;41883;49.544;8.646;2023-04-27T03:08:48;100694.50;;;5.85;nan
55685;BME280;41883;49.544;8.646;2023-04-27T03:11:13;100699.75;;;5.85;nan
55685;BME280;41883;49.544;8.646;2023-04-27T03:13:39;100702.75;;;5.92;nan
55685;BME280;41883;49.544;8.646;2023-04-27T03:16:07;100698.31;;;5.92;nan
55685;BME280;41883;49.544;8.646;2023-04-27T03:18:33;100695.47;;;5.95;nan
55685;BME280;41883;49.544;8.646;2023-04-27T03:23:30;100699.53;;;6.00;nan
55685;BME280;41883;49.544;8.646;2023-04-27T03:25:55;100698.63;;;6.01;nan
55685;BME280;41883;49.544;8.646;2023-04-27T03:28:20;100697.66;;;6.02;nan
55685;BME280;41883;49.544;8.646;2023-04-27T03:30:46;100694.91;;;6.03;nan
55685;BME280;41883;49.544;8.646;2023-04-27T03:33:11;100685.13;;;5.94;nan
55685;BME280;41883;49.544;8.646;2023-04-27T03:35:36;100687.50;;;5.97;nan
55685;BME280;41883;49.544;8.646;2023-04-27T03:38:01;100694.31;;;6.00;nan
55685;BME280;41883;49.544;8.646;2023-04-27T03:40:26;100688.94;;;6.01;nan
55685;BME280;41883;49.544;8.646;2023-04-27T03:42:51;100683.44;;;6.04;nan
55685;BME280;41883;49.544;8.646;2023-04-27T03:45:17;100688.22;;;6.10;nan
55685;BME280;41883;49.544;8.646;2023-04-27T03:47:43;100692.53;;;6.11;nan
55685;BME280;41883;49.544;8.646;2023-04-27T03:50:08;100680.22;;;6.12;nan
55685;BME280;41883;49.544;8.646;2023-04-27T03:52:33;100679.75;;;6.18;nan
55685;BME280;41883;49.544;8.646;2023-04-27T03:54:59;100684.16;;;6.29;nan
55685;BME280;41883;49.544;8.646;2023-04-27T03:57:24;100680.94;;;6.36;nan
55685;BME280;41883;49.544;8.646;2023-04-27T03:59:49;100684.97;;;6.41;nan
55685;BME280;41883;49.544;8.646;2023-04-27T04:02:15;100675.09;;;6.44;nan
55685;BME280;41883;49.544;8.646;2023-04-27T04:04:41;100685.44;;;6.57;nan
55685;BME280;41883;49.544;8.646;2023-04-27T04:07:06;100682.00;;;6.56;nan
55685;BME280;41883;49.544;8.646;2023-04-27T04:09:31;100690.44;;;6.60;nan
55685;BME280;41883;49.544;8.646;2023-04-27T04:11:56;100692.03;;;6.63;nan
55685;BME280;41883;49.544;8.646;2023-04-27T04:14:21;100689.72;;;6.69;nan
55685;BME280;41883;49.544;8.646;2023-04-27T04:16:47;100695.22;;;6.66;nan
55685;BME280;41883;49.544;8.646;2023-04-27T04:19:12;100691.78;;;6.66;nan
55685;BME280;41883;49.544;8.646;2023-04-27T04:21:37;100697.03;;;6.66;nan
55685;BME280;41883;49.544;8.646;2023-04-27T04:24:03;100693.56;;;6.65;nan
55685;BME280;41883;49.544;8.646;2023-04-27T04:26:28;100694.66;;;6.63;nan
55685;BME280;41883;49.544;8.646;2023-04-27T04:28:54;100697.75;;;6.68;nan
55685;BME280;41883;49.544;8.646;2023-04-27T04:31:19;100701.19;;;6.68;nan
55685;BME280;41883;49.544;8.646;2023-04-27T04:33:45;100694.97;;;6.69;nan
55685;BME280;41883;49.544;8.646;2023-04-27T04:36:10;100698.69;;;6.67;nan
55685;BME280;41883;49.544;8.646;2023-04-27T04:38:36;100694.75;;;6.72;nan
55685;BME280;41883;49.544;8.646;2023-04-27T04:41:01;100704.03;;;6.76;nan
55685;BME280;41883;49.544;8.646;2023-04-27T04:43:26;100698.66;;;6.78;nan
55685;BME280;41883;49.544;8.646;2023-04-27T04:45:52;100701.19;;;6.79;nan
55685;BME280;41883;49.544;8.646;2023-04-27T04:48:17;100700.31;;;6.79;nan
55685;BME280;41883;49.544;8.646;2023-04-27T04:50:43;100700.09;;;6.82;nan
55685;BME280;41883;49.544;8.646;2023-04-27T04:53:09;100699.47;;;6.90;nan
55685;BME280;41883;49.544;8.646;2023-04-27T04:55:34;100693.69;;;6.96;nan
55685;BME280;41883;49.544;8.646;2023-04-27T04:57:59;100700.66;;;6.97;nan
55685;BME280;41883;49.544;8.646;2023-04-27T05:00:24;100696.44;;;7.06;nan
55685;BME280;41883;49.544;8.646;2023-04-27T05:02:50;100695.59;;;7.05;nan
55685;BME280;41883;49.544;8.646;2023-04-27T05:05:15;100694.28;;;7.11;nan
55685;BME280;41883;49.544;8.646;2023-04-27T05:07:40;100693.41;;;7.10;nan
55685;BME280;41883;49.544;8.646;2023-04-27T05:10:06;100699.84;;;7.17;nan
55685;BME280;41883;49.544;8.646;2023-04-27T05:12:31;100703.53;;;7.26;nan
55685;BME280;41883;49.544;8.646;2023-04-27T05:14:56;100704.84;;;7.32;nan
55685;BME280;41883;49.544;8.646;2023-04-27T05:17:21;100703.22;;;7.40;nan
55685;BME280;41883;49.544;8.646;2023-04-27T05:19:47;100708.81;;;7.47;nan
55685;BME280;41883;49.544;8.646;2023-04-27T05:22:12;100713.31;;;7.56;nan
55685;BME280;41883;49.544;8.646;2023-04-27T05:24:37;100707.69;;;7.61;nan
55685;BME280;41883;49.544;8.646;2023-04-27T05:27:02;100714.09;;;7.68;nan
55685;BME280;41883;49.544;8.646;2023-04-27T05:29:27;100716.09;;;7.76;nan
55685;BME280;41883;49.544;8.646;2023-04-27T05:31:53;100721.53;;;7.84;nan
55685;BME280;41883;49.544;8.646;2023-04-27T05:34:18;100721.84;;;7.91;nan
55685;BME280;41883;49.544;8.646;2023-04-27T05:36:43;100723.16;;;7.96;nan
55685;BME280;41883;49.544;8.646;2023-04-27T05:39:09;100735.66;;;8.04;nan
55685;BME280;41883;49.544;8.646;2023-04-27T05:41:34;100732.09;;;8.15;nan
55685;BME280;41883;49.544;8.646;2023-04-27T05:43:59;100737.28;;;8.26;nan
55685;BME280;41883;49.544;8.646;2023-04-27T05:46:25;100738.16;;;8.36;nan
55685;BME280;41883;49.544;8.646;2023-04-27T05:48:50;100740.19;;;8.44;nan
55685;BME280;41883;49.544;8.646;2023-04-27T05:51:15;100740.44;;;8.41;nan
55685;BME280;41883;49.544;8.646;2023-04-27T05:53:41;100742.22;;;8.40;nan
55685;BME280;41883;49.544;8.646;2023-04-27T05:56:06;100726.34;;;8.52;nan
55685;BME280;41883;49.544;8.646;2023-04-27T05:58:31;100737.19;;;8.58;nan
55685;BME280;41883;49.544;8.646;2023-04-27T06:00:57;100742.81;;;8.84;nan
55685;BME280;41883;49.544;8.646;2023-04-27T06:03:22;100741.56;;;8.98;nan
55685;BME280;41883;49.544;8.646;2023-04-27T06:05:52;100751.72;;;9.12;nan
55685;BME280;41883;49.544;8.646;2023-04-27T06:08:17;100751.19;;;9.28;nan
55685;BME280;41883;49.544;8.646;2023-04-27T06:10:43;100752.19;;;9.37;nan
55685;BME280;41883;49.544;8.646;2023-04-27T06:13:08;100758.00;;;9.31;nan
55685;BME280;41883;49.544;8.646;2023-04-27T06:15:33;100760.75;;;9.10;nan
55685;BME280;41883;49.544;8.646;2023-04-27T06:17:58;100760.16;;;8.87;nan
55685;BME280;41883;49.544;8.646;2023-04-27T06:20:23;100758.16;;;8.79;nan
55685;BME280;41883;49.544;8.646;2023-04-27T06:22:48;100767.91;;;8.88;nan
55685;BME280;41883;49.544;8.646;2023-04-27T06:25:14;100773.38;;;8.97;nan
55685;BME280;41883;49.544;8.646;2023-04-27T06:27:39;100774.59;;;8.92;nan
55685;BME280;41883;49.544;8.646;2023-04-27T06:30:05;100783.91;;;8.97;nan
55685;BME280;41883;49.544;8.646;2023-04-27T06:32:30;100784.47;;;9.00;nan
55685;BME280;41883;49.544;8.646;2023-04-27T06:34:55;100788.22;;;9.07;nan
55685;BME280;41883;49.544;8.646;2023-04-27T06:37:21;100791.75;;;9.18;nan
55685;BME280;41883;49.544;8.646;2023-04-27T06:39:46;100804.09;;;9.36;nan
55685;BME280;41883;49.544;8.646;2023-04-27T06:42:11;100792.59;;;9.28;nan
55685;BME280;41883;49.544;8.646;2023-04-27T06:44:36;100791.75;;;9.18;nan
55685;BME280;41883;49.544;8.646;2023-04-27T06:47:02;100794.94;;;9.31;nan
55685;BME280;41883;49.544;8.646;2023-04-27T06:49:27;100795.94;;;9.49;nan
55685;BME280;41883;49.544;8.646;2023-04-27T06:51:52;100800.22;;;9.60;nan
55685;BME280;41883;49.544;8.646;2023-04-27T06:54:21;100802.47;;;9.65;nan
55685;BME280;41883;49.544;8.646;2023-04-27T06:56:46;100802.75;;;9.62;nan
55685;BME280;41883;49.544;8.646;2023-04-27T06:59:11;100801.47;;;9.36;nan
55685;BME280;41883;49.544;8.646;2023-04-27T07:01:36;100798.16;;;9.44;nan
55685;BME280;41883;49.544;8.646;2023-04-27T07:04:05;100801.63;;;9.54;nan
55685;BME280;41883;49.544;8.646;2023-04-27T07:06:30;100799.56;;;9.68;nan
55685;BME280;41883;49.544;8.646;2023-04-27T07:08:56;100804.41;;;9.92;nan
55685;BME280;41883;49.544;8.646;2023-04-27T07:11:22;100798.00;;;10.04;nan
55685;BME280;41883;49.544;8.646;2023-04-27T07:13:47;100808.53;;;10.33;nan
55685;BME280;41883;49.544;8.646;2023-04-27T07:16:12;100807.03;;;10.68;nan
55685;BME280;41883;49.544;8.646;2023-04-27T07:18:39;100799.66;;;10.99;nan
55685;BME280;41883;49.544;8.646;2023-04-27T07:21:04;100801.91;;;11.40;nan
55685;BME280;41883;49.544;8.646;2023-04-27T07:23:29;100804.59;;;11.84;nan
55685;BME280;41883;49.544;8.646;2023-04-27T07:25:56;100802.69;;;12.12;nan
55685;BME280;41883;49.544;8.646;2023-04-27T07:28:21;100797.91;;;12.42;nan
55685;BME280;41883;49.544;8.646;2023-04-27T07:30:46;100809.31;;;13.03;nan
55685;BME280;41883;49.544;8.646;2023-04-27T07:33:12;100808.81;;;13.66;nan
55685;BME280;41883;49.544;8.646;2023-04-27T07:35:37;100805.50;;;13.97;nan
55685;BME280;41883;49.544;8.646;2023-04-27T07:38:02;100810.28;;;14.26;nan
55685;BME280;41883;49.544;8.646;2023-04-27T07:40:28;100805.59;;;14.44;nan
55685;BME280;41883;49.544;8.646;2023-04-27T07:42:53;100805.25;;;14.56;nan
55685;BME280;41883;49.544;8.646;2023-04-27T07:45:19;100802.22;;;14.67;nan
55685;BME280;41883;49.544;8.646;2023-04-27T07:47:44;100806.59;;;14.99;nan
55685;BME280;41883;49.544;8.646;2023-04-27T07:50:10;100804.75;;;15.00;nan
55685;BME280;41883;49.544;8.646;2023-04-27T07:52:36;100805.09;;;15.28;nan
55685;BME280;41883;49.544;8.646;2023-04-27T07:55:02;100801.13;;;15.24;nan
55685;BME280;41883;49.544;8.646;2023-04-27T07:57:27;100794.19;;;15.61;nan
55685;BME280;41883;49.544;8.646;2023-04-27T07:59:53;100788.38;;;16.03;nan
55685;BME280;41883;49.544;8.646;2023-04-27T08:02:18;100787.63;;;16.47;nan
55685;BME280;41883;49.544;8.646;2023-04-27T08:04:43;100783.81;;;17.01;nan
55685;BME280;41883;49.544;8.646;2023-04-27T08:07:08;100787.72;;;17.41;nan
55685;BME280;41883;49.544;8.646;2023-04-27T08:09:33;100778.56;;;18.22;nan
55685;BME280;41883;49.544;8.646;2023-04-27T08:11:59;100783.72;;;18.58;nan
55685;BME280;41883;49.544;8.646;2023-04-27T08:14:24;100783.16;;;18.70;nan
55685;BME280;41883;49.544;8.646;2023-04-27T08:16:49;100784.81;;;19.25;nan
55685;BME280;41883;49.544;8.646;2023-04-27T08:19:16;100764.69;;;19.89;nan
55685;BME280;41883;49.544;8.646;2023-04-27T08:21:41;100777.06;;;20.10;nan
55685;BME280;41883;49.544;8.646;2023-04-27T08:24:06;100768.97;;;20.30;nan
55685;BME280;41883;49.544;8.646;2023-04-27T08:26:32;100774.53;;;20.49;nan
55685;BME280;41883;49.544;8.646;2023-04-27T08:28:57;100772.06;;;20.41;nan
55685;BME280;41883;49.544;8.646;2023-04-27T08:31:24;100771.66;;;21.02;nan
55685;BME280;41883;49.544;8.646;2023-04-27T08:33:49;100760.81;;;20.77;nan
55685;BME280;41883;49.544;8.646;2023-04-27T08:36:15;100762.00;;;20.88;nan
55685;BME280;41883;49.544;8.646;2023-04-27T08:38:40;100753.31;;;21.62;nan
55685;BME280;41883;49.544;8.646;2023-04-27T08:41:05;100745.34;;;21.93;nan
55685;BME280;41883;49.544;8.646;2023-04-27T08:43:33;100741.72;;;22.05;nan
55685;BME280;41883;49.544;8.646;2023-04-27T08:46:01;100737.25;;;21.74;nan
55685;BME280;41883;49.544;8.646;2023-04-27T08:48:27;100744.59;;;21.85;nan
55685;BME280;41883;49.544;8.646;2023-04-27T08:50:52;100748.53;;;22.08;nan
55685;BME280;41883;49.544;8.646;2023-04-27T08:53:20;100754.91;;;22.87;nan
55685;BME280;41883;49.544;8.646;2023-04-27T08:55:46;100757.94;;;22.79;nan
55685;BME280;41883;49.544;8.646;2023-04-27T08:58:11;100749.47;;;22.76;nan
55685;BME280;41883;49.544;8.646;2023-04-27T09:00:40;100754.00;;;22.94;nan
55685;BME280;41883;49.544;8.646;2023-04-27T09:03:06;100756.84;;;23.17;nan
55685;BME280;41883;49.544;8.646;2023-04-27T09:05:32;100755.56;;;22.34;nan
55685;BME280;41883;49.544;8.646;2023-04-27T09:08:01;100762.38;;;22.55;nan
55685;BME280;41883;49.544;8.646;2023-04-27T09:10:29;100751.63;;;23.46;nan
55685;BME280;41883;49.544;8.646;2023-04-27T09:12:55;100763.34;;;23.93;nan
55685;BME280;41883;49.544;8.646;2023-04-27T09:15:21;100762.97;;;24.25;nan
55685;BME280;41883;49.544;8.646;2023-04-27T09:17:46;100760.50;;;24.12;nan
55685;BME280;41883;49.544;8.646;2023-04-27T09:20:16;100759.59;;;24.82;nan
55685;BME280;41883;49.544;8.646;2023-04-27T09:22:46;100763.69;;;25.42;nan
55685;BME280;41883;49.544;8.646;2023-04-27T09:25:21;100760.22;;;26.14;nan
55685;BME280;41883;49.544;8.646;2023-04-27T09:27:47;100747.72;;;25.91;nan
55685;BME280;41883;49.544;8.646;2023-04-27T09:30:13;100757.09;;;26.44;nan
55685;BME280;41883;49.544;8.646;2023-04-27T09:32:38;100750.72;;;25.78;nan
55685;BME280;41883;49.544;8.646;2023-04-27T09:35:03;100752.13;;;25.63;nan
55685;BME280;41883;49.544;8.646;2023-04-27T09:37:40;100747.78;;;25.79;nan
55685;BME280;41883;49.544;8.646;2023-04-27T09:40:05;100749.75;;;26.01;nan
55685;BME280;41883;49.544;8.646;2023-04-27T09:42:31;100744.56;;;26.82;nan
55685;BME280;41883;49.544;8.646;2023-04-27T09:44:56;100742.44;;;26.84;nan
55685;BME280;41883;49.544;8.646;2023-04-27T09:47:23;100749.75;;;27.70;nan
55685;BME280;41883;49.544;8.646;2023-04-27T09:49:48;100741.06;;;28.11;nan
55685;BME280;41883;49.544;8.646;2023-04-27T09:52:14;100735.66;;;28.79;nan
55685;BME280;41883;49.544;8.646;2023-04-27T09:54:40;100734.41;;;29.33;nan
55685;BME280;41883;49.544;8.646;2023-04-27T09:57:11;100733.59;;;29.42;nan
55685;BME280;41883;49.544;8.646;2023-04-27T09:59:54;100732.75;;;29.52;nan
55685;BME280;41883;49.544;8.646;2023-04-27T10:02:23;100734.13;;;29.24;nan
55685;BME280;41883;49.544;8.646;2023-04-27T10:07:26;100730.03;;;29.47;nan
55685;BME280;41883;49.544;8.646;2023-04-27T10:09:52;100722.41;;;29.08;nan
55685;BME280;41883;49.544;8.646;2023-04-27T10:12:21;100726.34;;;28.59;nan
55685;BME280;41883;49.544;8.646;2023-04-27T10:14:50;100733.16;;;27.72;nan
55685;BME280;41883;49.544;8.646;2023-04-27T10:17:16;100730.75;;;27.11;nan
55685;BME280;41883;49.544;8.646;2023-04-27T10:19:51;100731.47;;;27.61;nan
55685;BME280;41883;49.544;8.646;2023-04-27T10:22:17;100722.59;;;28.13;nan
55685;BME280;41883;49.544;8.646;2023-04-27T10:24:42;100722.25;;;28.57;nan
55685;BME280;41883;49.544;8.646;2023-04-27T10:27:14;100718.38;;;28.43;nan
55685;BME280;41883;49.544;8.646;2023-04-27T10:29:40;100723.88;;;28.53;nan
55685;BME280;41883;49.544;8.646;2023-04-27T10:32:07;100722.91;;;28.95;nan
55685;BME280;41883;49.544;8.646;2023-04-27T10:34:33;100728.34;;;28.95;nan
55685;BME280;41883;49.544;8.646;2023-04-27T10:37:07;100722.66;;;29.12;nan
55685;BME280;41883;49.544;8.646;2023-04-27T10:39:34;100725.41;;;29.17;nan
55685;BME280;41883;49.544;8.646;2023-04-27T10:42:02;100727.31;;;29.57;nan
55685;BME280;41883;49.544;8.646;2023-04-27T10:44:28;100715.31;;;29.89;nan
55685;BME280;41883;49.544;8.646;2023-04-27T10:46:55;100716.13;;;29.90;nan
55685;BME280;41883;49.544;8.646;2023-04-27T10:49:21;100715.66;;;30.47;nan
55685;BME280;41883;49.544;8.646;2023-04-27T10:51:47;100710.88;;;30.74;nan
55685;BME280;41883;49.544;8.646;2023-04-27T10:54:12;100713.28;;;30.85;nan
55685;BME280;41883;49.544;8.646;2023-04-27T10:56:38;100708.56;;;30.96;nan
55685;BME280;41883;49.544;8.646;2023-04-27T10:59:04;100711.38;;;30.81;nan
55685;BME280;41883;49.544;8.646;2023-04-27T11:01:29;100708.47;;;29.97;nan
55685;BME280;41883;49.544;8.646;2023-04-27T11:03:55;100706.88;;;29.45;nan
55685;BME280;41883;49.544;8.646;2023-04-27T11:06:21;100689.97;;;29.58;nan
55685;BME280;41883;49.544;8.646;2023-04-27T11:08:46;100698.38;;;28.90;nan
55685;BME280;41883;49.544;8.646;2023-04-27T11:11:14;100695.16;;;29.34;nan
55685;BME280;41883;49.544;8.646;2023-04-27T11:13:41;100700.88;;;29.78;nan
55685;BME280;41883;49.544;8.646;2023-04-27T11:16:07;100694.81;;;28.69;nan
55685;BME280;41883;49.544;8.646;2023-04-27T11:18:35;100698.00;;;28.50;nan
55685;BME280;41883;49.544;8.646;2023-04-27T11:21:07;100698.75;;;28.35;nan
55685;BME280;41883;49.544;8.646;2023-04-27T11:23:33;100688.31;;;28.95;nan
55685;BME280;41883;49.544;8.646;2023-04-27T11:31:25;100685.84;;;29.86;nan
55685;BME280;41883;49.544;8.646;2023-04-27T11:33:50;100685.50;;;31.13;nan
55685;BME280;41883;49.544;8.646;2023-04-27T11:36:20;100688.69;;;31.83;nan
55685;BME280;41883;49.544;8.646;2023-04-27T11:38:45;100687.28;;;31.62;nan
55685;BME280;41883;49.544;8.646;2023-04-27T11:41:10;100698.34;;;30.73;nan
55685;BME280;41883;49.544;8.646;2023-04-27T11:43:38;100680.03;;;30.18;nan
55685;BME280;41883;49.544;8.646;2023-04-27T11:46:05;100684.06;;;30.86;nan
55685;BME280;41883;49.544;8.646;2023-04-27T11:48:34;100676.84;;;30.56;nan
55685;BME280;41883;49.544;8.646;2023-04-27T11:51:00;100677.47;;;30.47;nan
55685;BME280;41883;49.544;8.646;2023-04-27T11:53:32;100669.97;;;30.14;nan
55685;BME280;41883;49.544;8.646;2023-04-27T11:55:58;100673.28;;;29.95;nan
55685;BME280;41883;49.544;8.646;2023-04-27T11:58:25;100662.78;;;29.07;nan
55685;BME280;41883;49.544;8.646;2023-04-27T12:00:51;100663.81;;;28.02;nan
55685;BME280;41883;49.544;8.646;2023-04-27T12:03:16;100665.28;;;28.25;nan
55685;BME280;41883;49.544;8.646;2023-04-27T12:05:48;100662.03;;;28.38;nan
55685;BME280;41883;49.544;8.646;2023-04-27T12:08:14;100659.13;;;27.87;nan
55685;BME280;41883;49.544;8.646;2023-04-27T12:10:40;100655.88;;;27.95;nan
55685;BME280;41883;49.544;8.646;2023-04-27T12:13:05;100641.88;;;26.47;nan
55685;BME280;41883;49.544;8.646;2023-04-27T12:15:31;100644.59;;;25.64;nan
55685;BME280;41883;49.544;8.646;2023-04-27T12:17:56;100645.16;;;25.27;nan
55685;BME280;41883;49.544;8.646;2023-04-27T12:20:21;100642.72;;;24.97;nan
55685;BME280;41883;49.544;8.646;2023-04-27T12:22:47;100632.47;;;24.82;nan
55685;BME280;41883;49.544;8.646;2023-04-27T12:25:12;100631.22;;;24.90;nan
55685;BME280;41883;49.544;8.646;2023-04-27T12:27:37;100625.78;;;24.15;nan
55685;BME280;41883;49.544;8.646;2023-04-27T12:30:03;100626.31;;;23.89;nan
55685;BME280;41883;49.544;8.646;2023-04-27T12:32:28;100621.16;;;24.28;nan
55685;BME280;41883;49.544;8.646;2023-04-27T12:34:54;100616.44;;;23.12;nan
55685;BME280;41883;49.544;8.646;2023-04-27T12:37:19;100617.28;;;22.94;nan
55685;BME280;41883;49.544;8.646;2023-04-27T12:39:45;100616.66;;;22.80;nan
55685;BME280;41883;49.544;8.646;2023-04-27T12:42:11;100617.66;;;22.86;nan
55685;BME280;41883;49.544;8.646;2023-04-27T12:44:36;100613.38;;;23.08;nan
55685;BME280;41883;49.544;8.646;2023-04-27T12:47:01;100606.47;;;23.13;nan
55685;BME280;41883;49.544;8.646;2023-04-27T12:49:27;100614.00;;;22.92;nan
55685;BME280;41883;49.544;8.646;2023-04-27T12:51:52;100610.59;;;22.85;nan
55685;BME280;41883;49.544;8.646;2023-04-27T12:54:18;100613.88;;;22.87;nan
55685;BME280;41883;49.544;8.646;2023-04-27T12:56:43;100615.75;;;22.86;nan
55685;BME280;41883;49.544;8.646;2023-04-27T12:59:08;100619.47;;;22.74;nan
55685;BME280;41883;49.544;8.646;2023-04-27T13:01:33;100616.03;;;22.66;nan
55685;BME280;41883;49.544;8.646;2023-04-27T13:03:59;100614.31;;;22.42;nan
55685;BME280;41883;49.544;8.646;2023-04-27T13:06:25;100620.63;;;22.36;nan
55685;BME280;41883;49.544;8.646;2023-04-27T13:18:09;100607.97;;;22.36;nan
55685;BME280;41883;49.544;8.646;2023-04-27T13:20:34;100606.66;;;22.57;nan
55685;BME280;41883;49.544;8.646;2023-04-27T13:23:02;100601.78;;;22.36;nan
55685;BME280;41883;49.544;8.646;2023-04-27T13:25:28;100602.75;;;22.23;nan
55685;BME280;41883;49.544;8.646;2023-04-27T13:27:54;100599.31;;;21.79;nan
55685;BME280;41883;49.544;8.646;2023-04-27T13:30:22;100598.56;;;21.53;nan